sensor_id;sensor_type;location;lat;lon;timestamp;P1;durP1;ratioP1;P2;durP2;ratioP2
83634;SDS011;73596;49.482;11.238;2024-01-27T00:01:20;3.25;;;0.73;;
83634;SDS011;73596;49.482;11.238;2024-01-27T00:03:45;5.03;;;1.07;;
83634;SDS011;73596;49.482;11.238;2024-01-27T00:06:10;1.30;;;0.90;;
83634;SDS011;73596;49.482;11.238;2024-01-27T00:08:35;5.20;;;1.50;;
83634;SDS011;73596;49.482;11.238;2024-01-27T00:11:01;2.17;;;1.20;;
83634;SDS011;73596;49.482;11.238;2024-01-27T00:13:26;2.67;;;1.00;;
83634;SDS011;73596;49.482;11.238;2024-01-27T00:15:51;4.30;;;1.07;;
83634;SDS011;73596;49.482;11.238;2024-01-27T00:18:19;2.78;;;1.20;;
83634;SDS011;73596;49.482;11.238;2024-01-27T00:20:44;1.47;;;0.90;;
83634;SDS011;73596;49.482;11.238;2024-01-27T00:23:09;1.03;;;0.50;;
83634;SDS011;73596;49.482;11.238;2024-01-27T00:25:35;2.10;;;0.67;;
83634;SDS011;73596;49.482;11.238;2024-01-27T00:28:00;2.40;;;0.80;;
83634;SDS011;73596;49.482;11.238;2024-01-27T00:30:25;1.40;;;0.70;;
83634;SDS011;73596;49.482;11.238;2024-01-27T00:32:51;1.60;;;0.70;;
83634;SDS011;73596;49.482;11.238;2024-01-27T00:35:16;1.02;;;0.52;;
83634;SDS011;73596;49.482;11.238;2024-01-27T00:37:42;1.87;;;0.87;;
83634;SDS011;73596;49.482;11.238;2024-01-27T00:40:10;1.13;;;0.60;;
83634;SDS011;73596;49.482;11.238;2024-01-27T00:42:36;1.50;;;0.50;;
83634;SDS011;73596;49.482;11.238;2024-01-27T00:45:03;0.70;;;0.50;;
83634;SDS011;73596;49.482;11.238;2024-01-27T00:47:29;0.98;;;0.60;;
83634;SDS011;73596;49.482;11.238;2024-01-27T00:49:54;1.83;;;0.57;;
83634;SDS011;73596;49.482;11.238;2024-01-27T00:52:20;1.23;;;0.90;;
83634;SDS011;73596;49.482;11.238;2024-01-27T00:54:45;2.20;;;0.65;;
83634;SDS011;73596;49.482;11.238;2024-01-27T00:57:10;0.83;;;0.63;;
83634;SDS011;73596;49.482;11.238;2024-01-27T00:59:36;4.13;;;0.88;;
83634;SDS011;73596;49.482;11.238;2024-01-27T01:02:01;0.65;;;0.55;;
83634;SDS011;73596;49.482;11.238;2024-01-27T01:04:26;0.88;;;0.35;;
83634;SDS011;73596;49.482;11.238;2024-01-27T01:06:52;1.10;;;0.60;;
83634;SDS011;73596;49.482;11.238;2024-01-27T01:09:17;2.45;;;0.70;;
83634;SDS011;73596;49.482;11.238;2024-01-27T01:11:42;1.43;;;0.67;;
83634;SDS011;73596;49.482;11.238;2024-01-27T01:14:08;1.53;;;0.70;;
83634;SDS011;73596;49.482;11.238;2024-01-27T01:16:33;2.23;;;0.97;;
83634;SDS011;73596;49.482;11.238;2024-01-27T01:18:58;1.83;;;0.70;;
83634;SDS011;73596;49.482;11.238;2024-01-27T01:21:24;1.15;;;0.60;;
83634;SDS011;73596;49.482;11.238;2024-01-27T01:23:49;1.50;;;0.50;;
83634;SDS011;73596;49.482;11.238;2024-01-27T01:26:14;0.30;;;0.30;;
83634;SDS011;73596;49.482;11.238;2024-01-27T01:28:40;1.07;;;0.40;;
83634;SDS011;73596;49.482;11.238;2024-01-27T01:31:06;1.00;;;0.63;;
83634;SDS011;73596;49.482;11.238;2024-01-27T01:33:32;2.13;;;0.65;;
83634;SDS011;73596;49.482;11.238;2024-01-27T01:35:58;1.10;;;0.70;;
83634;SDS011;73596;49.482;11.238;2024-01-27T01:38:23;2.13;;;0.87;;
83634;SDS011;73596;49.482;11.238;2024-01-27T01:40:48;0.73;;;0.60;;
83634;SDS011;73596;49.482;11.238;2024-01-27T01:43:14;0.87;;;0.50;;
83634;SDS011;73596;49.482;11.238;2024-01-27T01:45:39;1.00;;;0.43;;
83634;SDS011;73596;49.482;11.238;2024-01-27T01:48:05;1.17;;;0.60;;
83634;SDS011;73596;49.482;11.238;2024-01-27T01:50:32;0.80;;;0.68;;
83634;SDS011;73596;49.482;11.238;2024-01-27T01:52:57;6.00;;;0.85;;
83634;SDS011;73596;49.482;11.238;2024-01-27T01:55:23;1.33;;;0.50;;
83634;SDS011;73596;49.482;11.238;2024-01-27T01:57:49;1.60;;;0.70;;
83634;SDS011;73596;49.482;11.238;2024-01-27T02:00:14;2.25;;;0.80;;
83634;SDS011;73596;49.482;11.238;2024-01-27T02:02:43;2.63;;;0.70;;
83634;SDS011;73596;49.482;11.238;2024-01-27T02:05:09;1.50;;;1.00;;
83634;SDS011;73596;49.482;11.238;2024-01-27T02:07:35;1.90;;;0.52;;
83634;SDS011;73596;49.482;11.238;2024-01-27T02:10:01;0.70;;;0.50;;
83634;SDS011;73596;49.482;11.238;2024-01-27T02:12:27;1.33;;;0.68;;
83634;SDS011;73596;49.482;11.238;2024-01-27T02:14:52;1.37;;;0.70;;
83634;SDS011;73596;49.482;11.238;2024-01-27T02:17:17;1.33;;;0.73;;
83634;SDS011;73596;49.482;11.238;2024-01-27T02:19:42;1.27;;;0.60;;
83634;SDS011;73596;49.482;11.238;2024-01-27T02:22:08;3.42;;;0.52;;
83634;SDS011;73596;49.482;11.238;2024-01-27T02:24:33;2.03;;;0.65;;
83634;SDS011;73596;49.482;11.238;2024-01-27T02:26:58;2.50;;;0.53;;
83634;SDS011;73596;49.482;11.238;2024-01-27T02:29:23;2.40;;;0.60;;
83634;SDS011;73596;49.482;11.238;2024-01-27T02:31:50;0.95;;;0.68;;
83634;SDS011;73596;49.482;11.238;2024-01-27T02:34:16;1.33;;;0.70;;
83634;SDS011;73596;49.482;11.238;2024-01-27T02:36:42;1.52;;;0.65;;
83634;SDS011;73596;49.482;11.238;2024-01-27T02:39:08;1.52;;;0.90;;
83634;SDS011;73596;49.482;11.238;2024-01-27T02:41:34;3.70;;;1.00;;
83634;SDS011;73596;49.482;11.238;2024-01-27T02:44:03;1.58;;;0.60;;
83634;SDS011;73596;49.482;11.238;2024-01-27T02:46:29;2.10;;;0.88;;
83634;SDS011;73596;49.482;11.238;2024-01-27T02:48:54;2.00;;;0.63;;
83634;SDS011;73596;49.482;11.238;2024-01-27T02:51:19;0.53;;;0.53;;
83634;SDS011;73596;49.482;11.238;2024-01-27T02:53:47;1.02;;;0.57;;
83634;SDS011;73596;49.482;11.238;2024-01-27T02:56:13;1.33;;;0.70;;
83634;SDS011;73596;49.482;11.238;2024-01-27T02:58:38;4.78;;;1.00;;
83634;SDS011;73596;49.482;11.238;2024-01-27T03:01:05;1.42;;;0.80;;
83634;SDS011;73596;49.482;11.238;2024-01-27T03:03:31;2.63;;;0.87;;
83634;SDS011;73596;49.482;11.238;2024-01-27T03:05:56;3.20;;;0.70;;
83634;SDS011;73596;49.482;11.238;2024-01-27T03:08:21;0.67;;;0.33;;
83634;SDS011;73596;49.482;11.238;2024-01-27T03:10:46;1.77;;;0.70;;
83634;SDS011;73596;49.482;11.238;2024-01-27T03:13:12;2.72;;;0.70;;
83634;SDS011;73596;49.482;11.238;2024-01-27T03:15:37;2.47;;;0.70;;
83634;SDS011;73596;49.482;11.238;2024-01-27T03:18:03;2.08;;;0.80;;
83634;SDS011;73596;49.482;11.238;2024-01-27T03:20:28;2.83;;;0.73;;
83634;SDS011;73596;49.482;11.238;2024-01-27T03:22:56;2.08;;;0.60;;
83634;SDS011;73596;49.482;11.238;2024-01-27T03:25:21;1.83;;;0.70;;
83634;SDS011;73596;49.482;11.238;2024-01-27T03:27:46;3.70;;;0.77;;
83634;SDS011;73596;49.482;11.238;2024-01-27T03:30:11;1.00;;;0.53;;
83634;SDS011;73596;49.482;11.238;2024-01-27T03:32:37;1.52;;;0.80;;
83634;SDS011;73596;49.482;11.238;2024-01-27T03:35:02;1.80;;;0.73;;
83634;SDS011;73596;49.482;11.238;2024-01-27T03:37:28;1.58;;;0.68;;
83634;SDS011;73596;49.482;11.238;2024-01-27T03:39:53;0.50;;;0.43;;
83634;SDS011;73596;49.482;11.238;2024-01-27T03:42:18;0.90;;;0.40;;
83634;SDS011;73596;49.482;11.238;2024-01-27T03:44:44;1.23;;;0.70;;
83634;SDS011;73596;49.482;11.238;2024-01-27T03:47:09;2.47;;;0.60;;
83634;SDS011;73596;49.482;11.238;2024-01-27T03:49:35;0.70;;;0.45;;
83634;SDS011;73596;49.482;11.238;2024-01-27T03:52:00;1.27;;;0.63;;
83634;SDS011;73596;49.482;11.238;2024-01-27T03:54:25;4.37;;;0.50;;
83634;SDS011;73596;49.482;11.238;2024-01-27T03:56:50;4.10;;;0.90;;
83634;SDS011;73596;49.482;11.238;2024-01-27T03:59:16;1.43;;;1.00;;
83634;SDS011;73596;49.482;11.238;2024-01-27T04:01:41;1.20;;;0.40;;
83634;SDS011;73596;49.482;11.238;2024-01-27T04:04:06;2.20;;;0.70;;
83634;SDS011;73596;49.482;11.238;2024-01-27T04:06:40;1.40;;;0.77;;
83634;SDS011;73596;49.482;11.238;2024-01-27T04:09:06;2.78;;;0.75;;
83634;SDS011;73596;49.482;11.238;2024-01-27T04:11:36;3.88;;;0.75;;
83634;SDS011;73596;49.482;11.238;2024-01-27T04:14:03;2.05;;;0.70;;
83634;SDS011;73596;49.482;11.238;2024-01-27T04:16:29;1.02;;;0.60;;
83634;SDS011;73596;49.482;11.238;2024-01-27T04:18:54;0.57;;;0.47;;
83634;SDS011;73596;49.482;11.238;2024-01-27T04:21:19;1.58;;;0.90;;
83634;SDS011;73596;49.482;11.238;2024-01-27T04:23:45;1.23;;;0.40;;
83634;SDS011;73596;49.482;11.238;2024-01-27T04:26:10;1.38;;;0.73;;
83634;SDS011;73596;49.482;11.238;2024-01-27T04:28:36;0.80;;;0.55;;
83634;SDS011;73596;49.482;11.238;2024-01-27T04:31:02;2.28;;;0.98;;
83634;SDS011;73596;49.482;11.238;2024-01-27T04:33:27;2.95;;;0.63;;
83634;SDS011;73596;49.482;11.238;2024-01-27T04:35:53;2.17;;;0.73;;
83634;SDS011;73596;49.482;11.238;2024-01-27T04:38:18;3.67;;;0.80;;
83634;SDS011;73596;49.482;11.238;2024-01-27T04:40:44;1.23;;;0.60;;
83634;SDS011;73596;49.482;11.238;2024-01-27T04:43:09;0.67;;;0.40;;
83634;SDS011;73596;49.482;11.238;2024-01-27T04:45:34;0.80;;;0.50;;
83634;SDS011;73596;49.482;11.238;2024-01-27T04:47:59;0.47;;;0.43;;
83634;SDS011;73596;49.482;11.238;2024-01-27T04:50:26;1.25;;;0.85;;
83634;SDS011;73596;49.482;11.238;2024-01-27T04:52:51;1.70;;;0.98;;
83634;SDS011;73596;49.482;11.238;2024-01-27T04:55:16;3.03;;;1.23;;
83634;SDS011;73596;49.482;11.238;2024-01-27T04:57:42;4.13;;;0.83;;
83634;SDS011;73596;49.482;11.238;2024-01-27T05:00:07;1.53;;;0.63;;
83634;SDS011;73596;49.482;11.238;2024-01-27T05:02:37;0.73;;;0.50;;
83634;SDS011;73596;49.482;11.238;2024-01-27T05:05:04;2.97;;;0.90;;
83634;SDS011;73596;49.482;11.238;2024-01-27T05:07:29;1.27;;;0.45;;
83634;SDS011;73596;49.482;11.238;2024-01-27T05:09:55;1.50;;;0.50;;
83634;SDS011;73596;49.482;11.238;2024-01-27T05:12:20;0.43;;;0.30;;
83634;SDS011;73596;49.482;11.238;2024-01-27T05:14:45;1.83;;;0.60;;
83634;SDS011;73596;49.482;11.238;2024-01-27T05:17:11;2.28;;;0.52;;
83634;SDS011;73596;49.482;11.238;2024-01-27T05:19:36;1.02;;;0.75;;
83634;SDS011;73596;49.482;11.238;2024-01-27T05:22:02;0.97;;;0.70;;
83634;SDS011;73596;49.482;11.238;2024-01-27T05:24:27;1.27;;;0.57;;
83634;SDS011;73596;49.482;11.238;2024-01-27T05:26:52;1.57;;;0.70;;
83634;SDS011;73596;49.482;11.238;2024-01-27T05:29:18;2.03;;;0.98;;
83634;SDS011;73596;49.482;11.238;2024-01-27T05:31:43;1.60;;;0.67;;
83634;SDS011;73596;49.482;11.238;2024-01-27T05:34:09;2.55;;;1.00;;
83634;SDS011;73596;49.482;11.238;2024-01-27T05:36:37;3.33;;;0.90;;
83634;SDS011;73596;49.482;11.238;2024-01-27T05:39:03;1.92;;;0.90;;
83634;SDS011;73596;49.482;11.238;2024-01-27T05:41:31;1.00;;;0.45;;
83634;SDS011;73596;49.482;11.238;2024-01-27T05:43:57;2.05;;;0.77;;
83634;SDS011;73596;49.482;11.238;2024-01-27T05:46:23;0.88;;;0.60;;
83634;SDS011;73596;49.482;11.238;2024-01-27T05:48:49;1.05;;;0.55;;
83634;SDS011;73596;49.482;11.238;2024-01-27T05:51:16;0.65;;;0.45;;
83634;SDS011;73596;49.482;11.238;2024-01-27T05:53:41;0.77;;;0.55;;
83634;SDS011;73596;49.482;11.238;2024-01-27T05:56:06;3.00;;;0.85;;
83634;SDS011;73596;49.482;11.238;2024-01-27T05:58:32;1.87;;;0.90;;
83634;SDS011;73596;49.482;11.238;2024-01-27T06:00:57;1.40;;;0.63;;
83634;SDS011;73596;49.482;11.238;2024-01-27T06:03:22;1.40;;;0.80;;
83634;SDS011;73596;49.482;11.238;2024-01-27T06:05:48;1.00;;;0.50;;
83634;SDS011;73596;49.482;11.238;2024-01-27T06:08:13;0.80;;;0.67;;
83634;SDS011;73596;49.482;11.238;2024-01-27T06:10:38;1.48;;;1.10;;
83634;SDS011;73596;49.482;11.238;2024-01-27T06:13:04;2.63;;;1.33;;
83634;SDS011;73596;49.482;11.238;2024-01-27T06:15:29;3.72;;;1.45;;
83634;SDS011;73596;49.482;11.238;2024-01-27T06:17:55;2.17;;;1.13;;
83634;SDS011;73596;49.482;11.238;2024-01-27T06:20:20;1.55;;;1.15;;
83634;SDS011;73596;49.482;11.238;2024-01-27T06:22:46;2.27;;;1.40;;
83634;SDS011;73596;49.482;11.238;2024-01-27T06:25:11;3.00;;;1.57;;
83634;SDS011;73596;49.482;11.238;2024-01-27T06:27:37;7.05;;;1.48;;
83634;SDS011;73596;49.482;11.238;2024-01-27T06:30:08;2.85;;;1.35;;
83634;SDS011;73596;49.482;11.238;2024-01-27T06:32:35;1.85;;;1.10;;
83634;SDS011;73596;49.482;11.238;2024-01-27T06:35:00;3.85;;;1.20;;
83634;SDS011;73596;49.482;11.238;2024-01-27T06:37:26;3.43;;;1.30;;
83634;SDS011;73596;49.482;11.238;2024-01-27T06:39:51;3.97;;;1.10;;
83634;SDS011;73596;49.482;11.238;2024-01-27T06:42:16;2.17;;;0.83;;
83634;SDS011;73596;49.482;11.238;2024-01-27T06:44:41;3.03;;;1.70;;
83634;SDS011;73596;49.482;11.238;2024-01-27T06:47:07;3.70;;;1.90;;
83634;SDS011;73596;49.482;11.238;2024-01-27T06:49:32;2.70;;;1.50;;
83634;SDS011;73596;49.482;11.238;2024-01-27T06:51:58;4.97;;;1.25;;
83634;SDS011;73596;49.482;11.238;2024-01-27T06:54:23;4.22;;;1.20;;
83634;SDS011;73596;49.482;11.238;2024-01-27T06:56:48;3.60;;;1.10;;
83634;SDS011;73596;49.482;11.238;2024-01-27T06:59:14;4.27;;;1.20;;
83634;SDS011;73596;49.482;11.238;2024-01-27T07:01:44;1.40;;;0.80;;
83634;SDS011;73596;49.482;11.238;2024-01-27T07:04:10;2.28;;;0.68;;
83634;SDS011;73596;49.482;11.238;2024-01-27T07:06:36;1.17;;;0.87;;
83634;SDS011;73596;49.482;11.238;2024-01-27T07:09:01;1.73;;;0.70;;
83634;SDS011;73596;49.482;11.238;2024-01-27T07:11:26;2.08;;;0.70;;
83634;SDS011;73596;49.482;11.238;2024-01-27T07:13:52;1.70;;;0.60;;
83634;SDS011;73596;49.482;11.238;2024-01-27T07:16:17;2.13;;;1.20;;
83634;SDS011;73596;49.482;11.238;2024-01-27T07:18:42;2.57;;;0.87;;
83634;SDS011;73596;49.482;11.238;2024-01-27T07:21:07;2.00;;;0.90;;
83634;SDS011;73596;49.482;11.238;2024-01-27T07:23:33;1.90;;;0.80;;
83634;SDS011;73596;49.482;11.238;2024-01-27T07:26:00;4.82;;;0.90;;
83634;SDS011;73596;49.482;11.238;2024-01-27T07:28:28;1.85;;;1.42;;
83634;SDS011;73596;49.482;11.238;2024-01-27T07:30:53;3.53;;;1.98;;
83634;SDS011;73596;49.482;11.238;2024-01-27T07:33:19;5.33;;;1.47;;
83634;SDS011;73596;49.482;11.238;2024-01-27T07:35:44;5.93;;;1.50;;
83634;SDS011;73596;49.482;11.238;2024-01-27T07:38:09;1.73;;;1.40;;
83634;SDS011;73596;49.482;11.238;2024-01-27T07:40:34;6.00;;;1.50;;
83634;SDS011;73596;49.482;11.238;2024-01-27T07:43:00;2.50;;;1.60;;
83634;SDS011;73596;49.482;11.238;2024-01-27T07:45:25;4.37;;;1.83;;
83634;SDS011;73596;49.482;11.238;2024-01-27T07:47:50;2.10;;;1.00;;
83634;SDS011;73596;49.482;11.238;2024-01-27T07:50:15;2.57;;;1.57;;
83634;SDS011;73596;49.482;11.238;2024-01-27T07:52:40;5.10;;;1.50;;
83634;SDS011;73596;49.482;11.238;2024-01-27T07:55:06;3.97;;;1.80;;
83634;SDS011;73596;49.482;11.238;2024-01-27T07:57:31;5.28;;;2.55;;
83634;SDS011;73596;49.482;11.238;2024-01-27T07:59:57;3.08;;;1.50;;
83634;SDS011;73596;49.482;11.238;2024-01-27T08:02:22;3.27;;;1.37;;
83634;SDS011;73596;49.482;11.238;2024-01-27T08:04:47;16.10;;;2.23;;
83634;SDS011;73596;49.482;11.238;2024-01-27T08:07:13;1.92;;;1.10;;
83634;SDS011;73596;49.482;11.238;2024-01-27T08:09:39;2.13;;;1.15;;
83634;SDS011;73596;49.482;11.238;2024-01-27T08:12:05;3.05;;;1.90;;
83634;SDS011;73596;49.482;11.238;2024-01-27T08:14:31;4.60;;;1.70;;
83634;SDS011;73596;49.482;11.238;2024-01-27T08:16:59;4.68;;;1.65;;
83634;SDS011;73596;49.482;11.238;2024-01-27T08:19:28;3.40;;;1.30;;
83634;SDS011;73596;49.482;11.238;2024-01-27T08:21:54;1.48;;;0.82;;
83634;SDS011;73596;49.482;11.238;2024-01-27T08:24:19;1.87;;;1.07;;
83634;SDS011;73596;49.482;11.238;2024-01-27T08:26:44;2.57;;;1.30;;
83634;SDS011;73596;49.482;11.238;2024-01-27T08:29:11;1.58;;;0.93;;
83634;SDS011;73596;49.482;11.238;2024-01-27T08:31:36;1.00;;;0.60;;
83634;SDS011;73596;49.482;11.238;2024-01-27T08:34:04;2.10;;;1.08;;
83634;SDS011;73596;49.482;11.238;2024-01-27T08:36:30;2.38;;;1.27;;
83634;SDS011;73596;49.482;11.238;2024-01-27T08:38:55;5.45;;;1.50;;
83634;SDS011;73596;49.482;11.238;2024-01-27T08:41:20;2.70;;;1.10;;
83634;SDS011;73596;49.482;11.238;2024-01-27T08:43:45;3.43;;;0.80;;
83634;SDS011;73596;49.482;11.238;2024-01-27T08:46:11;3.53;;;0.73;;
83634;SDS011;73596;49.482;11.238;2024-01-27T08:48:38;3.28;;;1.00;;
83634;SDS011;73596;49.482;11.238;2024-01-27T08:51:07;2.95;;;1.70;;
83634;SDS011;73596;49.482;11.238;2024-01-27T08:53:33;4.95;;;2.17;;
83634;SDS011;73596;49.482;11.238;2024-01-27T08:55:59;2.70;;;1.63;;
83634;SDS011;73596;49.482;11.238;2024-01-27T08:58:26;5.75;;;1.98;;
83634;SDS011;73596;49.482;11.238;2024-01-27T09:00:51;4.50;;;2.20;;
83634;SDS011;73596;49.482;11.238;2024-01-27T09:03:17;6.05;;;2.60;;
83634;SDS011;73596;49.482;11.238;2024-01-27T09:05:45;3.72;;;2.10;;
83634;SDS011;73596;49.482;11.238;2024-01-27T09:08:11;10.18;;;2.50;;
83634;SDS011;73596;49.482;11.238;2024-01-27T09:10:36;9.93;;;3.47;;
83634;SDS011;73596;49.482;11.238;2024-01-27T09:13:01;5.97;;;2.00;;
83634;SDS011;73596;49.482;11.238;2024-01-27T09:15:27;4.53;;;2.13;;
83634;SDS011;73596;49.482;11.238;2024-01-27T09:17:52;10.15;;;2.95;;
83634;SDS011;73596;49.482;11.238;2024-01-27T09:20:19;5.83;;;2.17;;
83634;SDS011;73596;49.482;11.238;2024-01-27T09:22:44;11.65;;;3.30;;
83634;SDS011;73596;49.482;11.238;2024-01-27T09:25:12;6.45;;;3.08;;
83634;SDS011;73596;49.482;11.238;2024-01-27T09:27:38;4.68;;;2.42;;
83634;SDS011;73596;49.482;11.238;2024-01-27T09:30:03;9.70;;;3.28;;
83634;SDS011;73596;49.482;11.238;2024-01-27T09:32:30;3.83;;;1.70;;
83634;SDS011;73596;49.482;11.238;2024-01-27T09:34:55;14.93;;;3.13;;
83634;SDS011;73596;49.482;11.238;2024-01-27T09:37:20;7.97;;;2.67;;
83634;SDS011;73596;49.482;11.238;2024-01-27T09:39:45;7.13;;;2.50;;
83634;SDS011;73596;49.482;11.238;2024-01-27T09:42:12;14.02;;;2.92;;
83634;SDS011;73596;49.482;11.238;2024-01-27T09:44:44;4.82;;;3.00;;
83634;SDS011;73596;49.482;11.238;2024-01-27T09:47:11;4.38;;;2.38;;
83634;SDS011;73596;49.482;11.238;2024-01-27T09:49:37;5.72;;;1.70;;
83634;SDS011;73596;49.482;11.238;2024-01-27T09:52:04;8.73;;;2.50;;
83634;SDS011;73596;49.482;11.238;2024-01-27T09:54:30;4.90;;;1.83;;
83634;SDS011;73596;49.482;11.238;2024-01-27T09:56:55;6.13;;;1.63;;
83634;SDS011;73596;49.482;11.238;2024-01-27T09:59:21;4.00;;;1.48;;
83634;SDS011;73596;49.482;11.238;2024-01-27T10:01:47;8.48;;;2.10;;
83634;SDS011;73596;49.482;11.238;2024-01-27T10:04:13;5.75;;;2.55;;
83634;SDS011;73596;49.482;11.238;2024-01-27T10:06:39;3.13;;;1.50;;
83634;SDS011;73596;49.482;11.238;2024-01-27T10:09:05;5.55;;;2.15;;
83634;SDS011;73596;49.482;11.238;2024-01-27T10:11:31;3.10;;;1.20;;
83634;SDS011;73596;49.482;11.238;2024-01-27T10:14:01;7.03;;;2.35;;
83634;SDS011;73596;49.482;11.238;2024-01-27T10:16:27;6.80;;;2.10;;
83634;SDS011;73596;49.482;11.238;2024-01-27T10:19:04;3.92;;;1.27;;
83634;SDS011;73596;49.482;11.238;2024-01-27T10:21:29;5.57;;;1.83;;
83634;SDS011;73596;49.482;11.238;2024-01-27T10:23:57;4.70;;;1.67;;
83634;SDS011;73596;49.482;11.238;2024-01-27T10:26:32;7.10;;;1.30;;
83634;SDS011;73596;49.482;11.238;2024-01-27T10:28:58;3.25;;;1.40;;
83634;SDS011;73596;49.482;11.238;2024-01-27T10:31:27;4.95;;;1.63;;
83634;SDS011;73596;49.482;11.238;2024-01-27T10:33:53;3.83;;;1.40;;
83634;SDS011;73596;49.482;11.238;2024-01-27T10:36:25;9.30;;;1.92;;
83634;SDS011;73596;49.482;11.238;2024-01-27T10:39:13;4.28;;;1.35;;
83634;SDS011;73596;49.482;11.238;2024-01-27T10:41:41;6.75;;;1.67;;
83634;SDS011;73596;49.482;11.238;2024-01-27T10:44:10;3.78;;;1.35;;
83634;SDS011;73596;49.482;11.238;2024-01-27T10:46:41;6.03;;;2.13;;
83634;SDS011;73596;49.482;11.238;2024-01-27T10:49:08;5.07;;;1.60;;
83634;SDS011;73596;49.482;11.238;2024-01-27T10:51:37;7.18;;;1.77;;
83634;SDS011;73596;49.482;11.238;2024-01-27T10:54:08;6.90;;;1.75;;
83634;SDS011;73596;49.482;11.238;2024-01-27T10:56:39;2.75;;;1.50;;
83634;SDS011;73596;49.482;11.238;2024-01-27T10:59:05;3.75;;;1.23;;
83634;SDS011;73596;49.482;11.238;2024-01-27T11:01:33;5.07;;;1.50;;
83634;SDS011;73596;49.482;11.238;2024-01-27T11:04:01;3.88;;;1.50;;
83634;SDS011;73596;49.482;11.238;2024-01-27T11:06:28;5.32;;;1.73;;
83634;SDS011;73596;49.482;11.238;2024-01-27T11:08:56;6.30;;;1.50;;
83634;SDS011;73596;49.482;11.238;2024-01-27T11:11:22;4.63;;;1.33;;
83634;SDS011;73596;49.482;11.238;2024-01-27T11:13:48;7.60;;;1.20;;
83634;SDS011;73596;49.482;11.238;2024-01-27T11:16:16;3.63;;;1.67;;
83634;SDS011;73596;49.482;11.238;2024-01-27T11:18:42;2.50;;;1.70;;
83634;SDS011;73596;49.482;11.238;2024-01-27T11:21:12;4.32;;;1.20;;
83634;SDS011;73596;49.482;11.238;2024-01-27T11:23:38;1.90;;;1.02;;
83634;SDS011;73596;49.482;11.238;2024-01-27T11:26:06;5.83;;;1.23;;
83634;SDS011;73596;49.482;11.238;2024-01-27T11:28:33;4.18;;;1.25;;
83634;SDS011;73596;49.482;11.238;2024-01-27T11:30:58;2.50;;;1.48;;
83634;SDS011;73596;49.482;11.238;2024-01-27T11:33:28;4.78;;;1.05;;
83634;SDS011;73596;49.482;11.238;2024-01-27T11:36:03;4.63;;;1.50;;
83634;SDS011;73596;49.482;11.238;2024-01-27T11:38:30;5.80;;;1.33;;
83634;SDS011;73596;49.482;11.238;2024-01-27T11:40:56;2.60;;;1.20;;
83634;SDS011;73596;49.482;11.238;2024-01-27T11:43:22;2.70;;;1.13;;
83634;SDS011;73596;49.482;11.238;2024-01-27T11:48:25;5.13;;;1.45;;
83634;SDS011;73596;49.482;11.238;2024-01-27T11:51:02;4.13;;;1.38;;
83634;SDS011;73596;49.482;11.238;2024-01-27T11:53:31;4.20;;;1.67;;
83634;SDS011;73596;49.482;11.238;2024-01-27T11:55:56;6.27;;;1.77;;
83634;SDS011;73596;49.482;11.238;2024-01-27T11:58:21;8.63;;;1.53;;
83634;SDS011;73596;49.482;11.238;2024-01-27T12:00:47;4.15;;;1.50;;
83634;SDS011;73596;49.482;11.238;2024-01-27T12:03:12;5.73;;;1.30;;
83634;SDS011;73596;49.482;11.238;2024-01-27T12:05:38;10.95;;;1.95;;
83634;SDS011;73596;49.482;11.238;2024-01-27T12:08:03;4.57;;;1.63;;
83634;SDS011;73596;49.482;11.238;2024-01-27T12:10:29;8.13;;;1.60;;
83634;SDS011;73596;49.482;11.238;2024-01-27T12:12:55;5.85;;;1.80;;
83634;SDS011;73596;49.482;11.238;2024-01-27T12:15:20;2.30;;;1.17;;
83634;SDS011;73596;49.482;11.238;2024-01-27T12:17:52;5.25;;;1.77;;
83634;SDS011;73596;49.482;11.238;2024-01-27T12:20:18;1.08;;;0.60;;
83634;SDS011;73596;49.482;11.238;2024-01-27T12:22:44;4.20;;;1.17;;
83634;SDS011;73596;49.482;11.238;2024-01-27T12:25:10;2.00;;;0.95;;
83634;SDS011;73596;49.482;11.238;2024-01-27T12:27:38;3.28;;;0.98;;
83634;SDS011;73596;49.482;11.238;2024-01-27T12:30:05;1.80;;;0.80;;
83634;SDS011;73596;49.482;11.238;2024-01-27T12:32:30;3.67;;;0.95;;
83634;SDS011;73596;49.482;11.238;2024-01-27T12:34:57;5.40;;;1.27;;
83634;SDS011;73596;49.482;11.238;2024-01-27T12:37:25;2.45;;;0.65;;
83634;SDS011;73596;49.482;11.238;2024-01-27T12:39:50;2.93;;;1.10;;
83634;SDS011;73596;49.482;11.238;2024-01-27T12:42:16;2.50;;;0.90;;
83634;SDS011;73596;49.482;11.238;2024-01-27T12:44:41;2.15;;;1.17;;
83634;SDS011;73596;49.482;11.238;2024-01-27T12:47:07;3.15;;;1.20;;
83634;SDS011;73596;49.482;11.238;2024-01-27T12:49:34;10.32;;;2.08;;
83634;SDS011;73596;49.482;11.238;2024-01-27T12:52:00;5.63;;;0.93;;
83634;SDS011;73596;49.482;11.238;2024-01-27T12:54:25;1.97;;;0.60;;
83634;SDS011;73596;49.482;11.238;2024-01-27T12:56:50;4.57;;;1.10;;
83634;SDS011;73596;49.482;11.238;2024-01-27T12:59:16;3.38;;;0.93;;
83634;SDS011;73596;49.482;11.238;2024-01-27T13:01:42;1.77;;;0.82;;
83634;SDS011;73596;49.482;11.238;2024-01-27T13:04:07;3.73;;;1.07;;
83634;SDS011;73596;49.482;11.238;2024-01-27T13:06:32;3.27;;;0.83;;
83634;SDS011;73596;49.482;11.238;2024-01-27T13:08:58;2.35;;;0.75;;
83634;SDS011;73596;49.482;11.238;2024-01-27T13:11:24;2.47;;;0.85;;
83634;SDS011;73596;49.482;11.238;2024-01-27T13:13:49;5.35;;;1.08;;
83634;SDS011;73596;49.482;11.238;2024-01-27T13:16:14;5.63;;;1.02;;
83634;SDS011;73596;49.482;11.238;2024-01-27T13:18:40;3.07;;;1.20;;
83634;SDS011;73596;49.482;11.238;2024-01-27T13:21:05;3.73;;;1.10;;
83634;SDS011;73596;49.482;11.238;2024-01-27T13:23:31;5.75;;;0.95;;
83634;SDS011;73596;49.482;11.238;2024-01-27T13:25:57;2.45;;;1.00;;
83634;SDS011;73596;49.482;11.238;2024-01-27T13:28:22;5.05;;;1.15;;
83634;SDS011;73596;49.482;11.238;2024-01-27T13:30:48;3.08;;;1.00;;
83634;SDS011;73596;49.482;11.238;2024-01-27T13:33:14;2.72;;;0.95;;
83634;SDS011;73596;49.482;11.238;2024-01-27T13:35:40;4.88;;;1.25;;
83634;SDS011;73596;49.482;11.238;2024-01-27T13:38:07;3.97;;;1.58;;
83634;SDS011;73596;49.482;11.238;2024-01-27T13:40:33;2.23;;;0.83;;
83634;SDS011;73596;49.482;11.238;2024-01-27T13:42:58;4.20;;;1.17;;
83634;SDS011;73596;49.482;11.238;2024-01-27T13:45:25;5.05;;;1.75;;
83634;SDS011;73596;49.482;11.238;2024-01-27T13:47:50;6.30;;;3.07;;
83634;SDS011;73596;49.482;11.238;2024-01-27T13:50:15;5.10;;;1.60;;
83634;SDS011;73596;49.482;11.238;2024-01-27T13:52:41;2.58;;;1.05;;
83634;SDS011;73596;49.482;11.238;2024-01-27T13:55:08;4.13;;;1.77;;
83634;SDS011;73596;49.482;11.238;2024-01-27T13:57:34;1.85;;;1.40;;
83634;SDS011;73596;49.482;11.238;2024-01-27T13:59:59;7.80;;;1.45;;
83634;SDS011;73596;49.482;11.238;2024-01-27T14:02:24;7.00;;;1.67;;
83634;SDS011;73596;49.482;11.238;2024-01-27T14:04:50;4.65;;;1.20;;
83634;SDS011;73596;49.482;11.238;2024-01-27T14:07:15;2.33;;;1.10;;
83634;SDS011;73596;49.482;11.238;2024-01-27T14:09:41;2.97;;;0.95;;
83634;SDS011;73596;49.482;11.238;2024-01-27T14:12:06;4.60;;;1.13;;
83634;SDS011;73596;49.482;11.238;2024-01-27T14:14:32;2.97;;;1.08;;
83634;SDS011;73596;49.482;11.238;2024-01-27T14:16:57;1.23;;;0.75;;
83634;SDS011;73596;49.482;11.238;2024-01-27T14:19:23;1.20;;;0.53;;
83634;SDS011;73596;49.482;11.238;2024-01-27T14:21:48;2.15;;;0.77;;
83634;SDS011;73596;49.482;11.238;2024-01-27T14:24:13;2.05;;;0.93;;
83634;SDS011;73596;49.482;11.238;2024-01-27T14:26:39;2.33;;;0.73;;
83634;SDS011;73596;49.482;11.238;2024-01-27T14:29:04;2.73;;;0.87;;